TimeEST,TemperatureF,Dew PointF,Humidity,Sea Level PressureIn,VisibilityMPH,Wind Direction,Wind SpeedMPH,Gust SpeedMPH,PrecipitationIn,Events,Conditions,WindDirDegrees,DateUTC
12:55 AM,58.5,55.8,91,30.19,10.0,East,9.2,-,N/A,,Clear,80,2012-12-05 05:55:00
1:55 AM,58.6,56.3,92,30.18,10.0,East,6.9,-,N/A,,Scattered Clouds,80,2012-12-05 06:55:00
2:55 AM,61.3,59.4,93,30.17,10.0,Calm,Calm,-,N/A,,Overcast,0,2012-12-05 07:55:00
3:55 AM,60.1,56.7,88,30.16,10.0,ENE,6.9,-,N/A,,Partly Cloudy,70,2012-12-05 08:55:00
4:55 AM,56.8,55.2,94,30.15,10.0,ENE,6.9,-,N/A,,Clear,60,2012-12-05 09:55:00
5:55 AM,56.3,55.2,96,30.15,10.0,Calm,Calm,-,N/A,,Clear,0,2012-12-05 10:55:00
6:55 AM,55.8,54.1,94,30.15,10.0,ENE,6.9,-,N/A,,Clear,70,2012-12-05 11:55:00
7:55 AM,57.7,57.4,99,30.18,10.0,ENE,4.6,-,N/A,,Clear,60,2012-12-05 12:55:00
9:55 AM,70.7,63.5,78,30.19,10.0,East,8.1,-,N/A,,Clear,100,2012-12-05 14:55:00
10:55 AM,75.0,65.1,71,30.18,10.0,East,6.9,-,N/A,,Clear,90,2012-12-05 15:55:00
11:55 AM,78.6,64.0,61,30.15,10.0,East,5.8,-,N/A,,Clear,80,2012-12-05 16:55:00
12:55 PM,81.5,56.5,42,30.12,10.0,ENE,5.8,-,N/A,,Clear,60,2012-12-05 17:55:00
1:55 PM,81.0,63.5,55,30.09,10.0,West,5.8,-,N/A,,Partly Cloudy,270,2012-12-05 18:55:00
2:55 PM,79.9,58.5,48,30.06,10.0,NW,8.1,-,N/A,,Partly Cloudy,320,2012-12-05 19:55:00
3:55 PM,78.1,58.3,50,30.05,10.0,NW,4.6,-,N/A,,Scattered Clouds,310,2012-12-05 20:55:00
4:55 PM,73.6,62.6,68,30.05,10.0,NNW,3.5,-,N/A,,Partly Cloudy,340,2012-12-05 21:55:00
5:55 PM,70.7,60.6,70,30.05,10.0,North,6.9,-,N/A,,Mostly Cloudy,350,2012-12-05 22:55:00
6:55 PM,68.9,61.7,78,30.06,10.0,North,5.8,-,N/A,,Partly Cloudy,350,2012-12-05 23:55:00
7:55 PM,68.0,60.3,76,30.07,10.0,North,6.9,-,N/A,,Scattered Clouds,350,2012-12-06 00:55:00
8:55 PM,66.9,60.6,80,30.06,10.0,NE,4.6,-,N/A,,Mostly Cloudy,40,2012-12-06 01:55:00
9:55 PM,68.7,63.0,82,30.07,10.0,ENE,10.4,-,N/A,,Mostly Cloudy,70,2012-12-06 02:55:00
10:55 PM,65.8,62.2,88,30.07,10.0,East,6.9,-,N/A,,Scattered Clouds,80,2012-12-06 03:55:00
11:55 PM,65.7,64.8,97,30.06,10.0,East,8.1,-,N/A,,Mostly Cloudy,90,2012-12-06 04:55:00